Time;durP1;ratioP1;P1;durP2;ratioP2;P2;SDS_P1;SDS_P2;PMS_P1;PMS_P2;Temp;Humidity;BMP_temperature;BMP_pressure;BME280_temperature;BME280_humidity;BME280_pressure;Samples;Min_cycle;Max_cycle;Signal;HPM_P1;HPM_P2
2023/09/09 00:03:20;;;;;;;;;;;;;;;23.74;50.34;95844.00;10544015;28;1656;-62
2023/09/09 00:08:20;;;;;;;;;;;;;;;23.75;50.46;95834.22;10533495;28;1316;-62
2023/09/09 00:13:21;;;;;;;;;;;;;;;23.75;50.20;95844.81;10509060;28;1966;-62
2023/09/09 00:18:21;;;;;;;;;;;;;;;23.74;50.27;95846.66;10542089;28;1074;-62
2023/09/09 00:23:21;;;;;;;;;;;;;;;23.73;50.30;95839.81;10543398;28;1430;-62
2023/09/09 00:28:23;;;;;;;;;;;;;;;23.76;50.34;95841.09;10537670;28;1346;-62
2023/09/09 00:33:23;;;;;;;;;;;;;;;23.75;50.28;95840.31;10509191;28;1980;-62
2023/09/09 00:38:23;;;;;;;;;;;;;;;23.74;50.36;95833.44;10524307;28;1433;-62
2023/09/09 00:43:23;;;;;;;;;;;;;;;23.75;50.27;95831.56;10550071;28;1415;-62
2023/09/09 00:48:24;;;;;;;;;;;;;;;23.74;50.26;95825.50;10534849;28;1041;-62
2023/09/09 00:53:24;;;;;;;;;;;;;;;23.75;50.25;95823.63;10530028;28;1981;-62
2023/09/09 00:58:25;;;;;;;;;;;;;;;23.75;50.38;95823.63;10536547;28;963;-62
2023/09/09 01:03:25;;;;;;;;;;;;;;;23.74;50.22;95822.09;10504415;28;1522;-62
2023/09/09 01:08:28;;;;;;;;;;;;;;;23.74;50.24;95828.13;10531759;28;1636;-62
2023/09/09 01:13:29;;;;;;;;;;;;;;;23.75;50.28;95824.44;10519607;28;1909;-62
2023/09/09 01:18:31;;;;;;;;;;;;;;;23.75;50.24;95823.63;10529493;28;1499;-62
2023/09/09 01:23:31;;;;;;;;;;;;;;;23.74;50.43;95816.78;10543224;28;1499;-62
2023/09/09 01:28:31;;;;;;;;;;;;;;;23.75;50.37;95821.00;10530441;28;983;-62
2023/09/09 01:33:32;;;;;;;;;;;;;;;23.74;50.41;95817.56;10516186;28;1913;-62
2023/09/09 01:38:34;;;;;;;;;;;;;;;23.74;50.49;95822.84;10542355;28;1513;-62
2023/09/09 01:43:34;;;;;;;;;;;;;;;23.74;50.26;95817.56;10517945;28;5215;-62
2023/09/09 01:48:34;;;;;;;;;;;;;;;23.74;50.39;95817.56;10514731;28;1507;-62
2023/09/09 01:53:35;;;;;;;;;;;;;;;23.73;50.33;95821.28;10514556;28;1909;-62
2023/09/09 01:58:35;;;;;;;;;;;;;;;23.74;50.35;95822.84;10522303;28;1035;-62
2023/09/09 02:03:36;;;;;;;;;;;;;;;23.74;50.15;95817.56;10522905;28;1479;-62
2023/09/09 02:08:36;;;;;;;;;;;;;;;23.74;50.28;95812.25;10524553;28;1521;-62
2023/09/09 02:13:36;;;;;;;;;;;;;;;23.74;50.30;95811.50;10529055;28;1914;-62
2023/09/09 02:18:40;;;;;;;;;;;;;;;23.74;50.45;95812.25;10527506;28;1531;-62
2023/09/09 02:23:41;;;;;;;;;;;;;;;23.74;50.24;95812.25;10496505;28;1467;-62
2023/09/09 02:28:41;;;;;;;;;;;;;;;23.74;50.24;95806.97;10521323;28;1039;-62
2023/09/09 02:33:41;;;;;;;;;;;;;;;23.74;50.32;95806.97;10533948;28;1946;-60
2023/09/09 02:38:42;;;;;;;;;;;;;;;23.74;50.18;95816.78;10508532;28;2420;-62
2023/09/09 02:43:42;;;;;;;;;;;;;;;23.74;50.50;95809.59;10537333;28;5570;-62
2023/09/09 02:48:43;;;;;;;;;;;;;;;23.74;50.21;95811.50;10531446;28;1511;-62
2023/09/09 02:53:43;;;;;;;;;;;;;;;23.74;50.22;95814.13;10495987;28;1981;-62
2023/09/09 02:58:43;;;;;;;;;;;;;;;23.73;50.25;95805.41;10529922;28;1033;-62
2023/09/09 03:03:44;;;;;;;;;;;;;;;23.75;50.18;95813.06;10526321;28;1458;-62
2023/09/09 03:08:44;;;;;;;;;;;;;;;23.73;50.43;95805.41;10521219;28;1451;-63
2023/09/09 03:13:44;;;;;;;;;;;;;;;23.73;50.18;95800.13;10529017;28;1911;-62
2023/09/09 03:18:45;;;;;;;;;;;;;;;23.73;50.26;95802.75;10522094;28;1276;-63
2023/09/09 03:23:45;;;;;;;;;;;;;;;23.73;50.22;95805.41;10528710;28;1352;-63
2023/09/09 03:28:45;;;;;;;;;;;;;;;23.73;50.07;95797.47;10509248;28;968;-62
2023/09/09 03:33:46;;;;;;;;;;;;;;;23.73;50.44;95801.97;10526792;28;7356;-62
2023/09/09 03:38:46;;;;;;;;;;;;;;;23.73;50.19;95813.34;10517017;28;2765;-62
2023/09/09 03:43:46;;;;;;;;;;;;;;;23.74;50.18;95800.91;10506308;28;5222;-63
2023/09/09 03:48:46;;;;;;;;;;;;;;;23.73;50.23;95804.63;10524446;28;2776;-63
2023/09/09 03:53:47;;;;;;;;;;;;;;;23.72;50.36;95811.75;10515573;28;1918;-62
2023/09/09 03:58:47;;;;;;;;;;;;;;;23.73;50.27;95809.91;10522621;28;1046;-62
2023/09/09 04:03:47;;;;;;;;;;;;;;;23.74;50.11;95812.25;10518758;28;1410;-63
2023/09/09 04:08:50;;;;;;;;;;;;;;;23.73;50.28;95812.56;10530203;28;5231;-60
2023/09/09 04:13:50;;;;;;;;;;;;;;;23.73;50.16;95812.56;10521596;28;1972;-62
2023/09/09 04:18:50;;;;;;;;;;;;;;;23.73;50.35;95813.34;10535881;28;1341;-63
2023/09/09 04:23:50;;;;;;;;;;;;;;;23.72;50.39;95814.41;10533543;28;1447;-62
2023/09/09 04:28:51;;;;;;;;;;;;;;;23.73;50.17;95818.63;10539754;28;1066;-63
2023/09/09 04:33:51;;;;;;;;;;;;;;;23.72;49.91;95814.41;10523807;28;1918;-62
2023/09/09 04:38:51;;;;;;;;;;;;;;;23.74;50.10;95828.13;10520974;28;1403;-63
2023/09/09 04:43:51;;;;;;;;;;;;;;;23.73;50.28;95825.78;10540718;28;8075;-63
2023/09/09 04:48:52;;;;;;;;;;;;;;;23.73;50.14;95834.53;10531458;28;1463;-63
2023/09/09 04:53:52;;;;;;;;;;;;;;;23.72;50.25;95835.59;10541756;28;1968;-62
2023/09/09 04:58:52;;;;;;;;;;;;;;;23.73;50.22;95831.88;10525502;28;1079;-63
2023/09/09 05:03:53;;;;;;;;;;;;;;;23.72;50.25;95835.59;10527881;28;1417;-62
2023/09/09 05:08:53;;;;;;;;;;;;;;;23.73;50.16;95833.72;10523943;28;1363;-63
2023/09/09 05:13:54;;;;;;;;;;;;;;;23.72;50.05;95835.59;10524021;28;2003;-63
2023/09/09 05:18:54;;;;;;;;;;;;;;;23.73;50.19;95839.03;10538703;28;1079;-62
2023/09/09 05:23:55;;;;;;;;;;;;;;;23.74;50.13;95845.91;10506553;28;1463;-63
2023/09/09 05:28:55;;;;;;;;;;;;;;;23.73;50.33;95855.69;10519603;28;1026;-63
2023/09/09 05:33:55;;;;;;;;;;;;;;;23.73;49.94;95858.34;10527230;28;1922;-62
2023/09/09 05:38:59;;;;;;;;;;;;;;;23.73;50.03;95861.00;10535226;28;2370;-62
2023/09/09 05:43:59;;;;;;;;;;;;;;;23.72;50.05;95856.75;10509962;28;5066;-62
2023/09/09 05:49:00;;;;;;;;;;;;;;;23.72;50.26;95862.06;10519633;28;1375;-62
2023/09/09 05:54:01;;;;;;;;;;;;;;;23.71;50.10;95860.50;10521375;28;1985;-63
2023/09/09 05:59:07;;;;;;;;;;;;;;;23.73;49.96;95863.63;10522617;28;1129;-62
2023/09/09 06:04:07;;;;;;;;;;;;;;;23.73;49.92;95871.56;10512939;28;1281;-63
2023/09/09 06:09:08;;;;;;;;;;;;;;;23.73;50.09;95868.13;10539066;28;1404;-63
2023/09/09 06:14:08;;;;;;;;;;;;;;;23.73;50.00;95868.13;10523397;28;1977;-62
2023/09/09 06:19:08;;;;;;;;;;;;;;;23.74;49.91;95864.44;10532764;28;1439;-62
2023/09/09 06:24:08;;;;;;;;;;;;;;;23.73;50.05;95866.28;10525431;28;1414;-62
2023/09/09 06:29:09;;;;;;;;;;;;;;;23.73;50.11;95868.94;10515753;28;1031;-63
2023/09/09 06:34:09;;;;;;;;;;;;;;;23.73;50.12;95866.28;10519887;28;2322;-63
2023/09/09 06:39:10;;;;;;;;;;;;;;;23.73;50.11;95876.88;10519341;28;1459;-62
2023/09/09 06:44:10;;;;;;;;;;;;;;;23.74;50.14;95878.44;10523422;28;5089;-63
2023/09/09 06:49:11;;;;;;;;;;;;;;;23.72;50.18;95883.22;10517450;28;1275;-62
2023/09/09 06:54:11;;;;;;;;;;;;;;;23.75;50.05;95881.88;10525732;28;1910;-62
2023/09/09 06:59:11;;;;;;;;;;;;;;;23.74;50.25;95885.59;10546203;28;983;-62
2023/09/09 07:04:12;;;;;;;;;;;;;;;23.74;50.11;95891.66;10508660;28;1441;-63
2023/09/09 07:09:12;;;;;;;;;;;;;;;23.75;50.19;95889.81;10525850;28;1379;-63
2023/09/09 07:14:12;;;;;;;;;;;;;;;23.75;50.19;95895.91;10524869;28;2365;-62
2023/09/09 07:19:12;;;;;;;;;;;;;;;23.76;50.14;95899.34;10519410;28;1432;-63
2023/09/09 07:24:13;;;;;;;;;;;;;;;23.76;50.32;95904.63;10538231;28;1452;-62
2023/09/09 07:29:13;;;;;;;;;;;;;;;23.76;50.14;95896.69;10530269;28;2390;-63
2023/09/09 07:34:13;;;;;;;;;;;;;;;23.75;50.19;95895.91;10538976;28;1931;-62
2023/09/09 07:39:14;;;;;;;;;;;;;;;23.76;50.31;95894.03;10517585;28;1533;-62
2023/09/09 07:44:14;;;;;;;;;;;;;;;23.77;50.27;95896.38;10517792;28;5144;-62
2023/09/09 07:49:14;;;;;;;;;;;;;;;23.76;50.25;95894.81;10545218;28;1560;-63
2023/09/09 07:54:15;;;;;;;;;;;;;;;23.76;50.25;95902.75;10536961;28;1906;-62
2023/09/09 07:59:15;;;;;;;;;;;;;;;23.78;50.18;95897.94;10533044;28;1573;-62
2023/09/09 08:04:15;;;;;;;;;;;;;;;23.77;50.23;95901.69;10534881;28;1533;-63
2023/09/09 08:09:15;;;;;;;;;;;;;;;23.78;50.67;95903.25;10519173;28;1499;-63
2023/09/09 08:14:17;;;;;;;;;;;;;;;23.79;50.58;95904.03;10521809;28;1971;-62
2023/09/09 08:19:17;;;;;;;;;;;;;;;23.79;50.29;95907.47;10522144;28;1584;-62
2023/09/09 08:24:17;;;;;;;;;;;;;;;23.80;50.25;95910.91;10539448;28;1569;-62
2023/09/09 08:29:17;;;;;;;;;;;;;;;23.79;50.35;95910.13;10535324;28;2714;-62
2023/09/09 08:34:18;;;;;;;;;;;;;;;23.80;50.23;95914.31;10549694;28;1918;-62
2023/09/09 08:39:19;;;;;;;;;;;;;;;23.81;50.28;95913.25;10533613;28;1384;-62
2023/09/09 08:44:37;;;;;;;;;;;;;;;23.82;50.36;95914.81;10517880;28;5304;-62
2023/09/09 08:49:37;;;;;;;;;;;;;;;23.82;50.45;95908.75;10540852;28;1331;-63
2023/09/09 08:54:38;;;;;;;;;;;;;;;23.84;50.41;95914.56;10541815;28;1906;-62
2023/09/09 08:59:38;;;;;;;;;;;;;;;23.84;50.40;95914.56;10507859;28;1198;-62
2023/09/09 09:04:38;;;;;;;;;;;;;;;23.86;50.41;95915.84;10523303;28;1382;-62
2023/09/09 09:09:39;;;;;;;;;;;;;;;23.85;50.38;95916.09;10528204;28;1351;-62
2023/09/09 09:14:46;;;;;;;;;;;;;;;23.87;50.19;95920.03;10549754;28;1910;-62
2023/09/09 09:19:46;;;;;;;;;;;;;;;23.87;50.42;95917.41;10540493;28;1356;-62
2023/09/09 09:24:46;;;;;;;;;;;;;;;23.89;50.35;95919.75;10487163;28;1422;-62
2023/09/09 09:29:48;;;;;;;;;;;;;;;23.89;50.28;95914.44;10501999;28;1175;-62
2023/09/09 09:34:50;;;;;;;;;;;;;;;23.89;50.31;95915.25;10528851;28;1902;-62
2023/09/09 09:39:50;;;;;;;;;;;;;;;23.90;50.60;95908.88;10546550;28;5053;-62
2023/09/09 09:44:53;;;;;;;;;;;;;;;23.91;50.36;95907.78;10541187;28;1232;-62
2023/09/09 09:49:54;;;;;;;;;;;;;;;23.92;50.37;95904.09;10501688;28;1530;-62
2023/09/09 09:54:55;;;;;;;;;;;;;;;23.92;50.57;95904.09;10521334;28;1964;-62
2023/09/09 09:59:55;;;;;;;;;;;;;;;23.94;50.48;95906.44;10518256;28;1139;-62
2023/09/09 10:04:55;;;;;;;;;;;;;;;23.94;50.79;95906.44;10529536;28;1515;-61
2023/09/09 10:09:56;;;;;;;;;;;;;;;23.94;50.45;95901.94;10512697;28;1379;-62
2023/09/09 10:14:56;;;;;;;;;;;;;;;23.96;50.52;95894.47;10526000;28;1905;-62
2023/09/09 10:19:56;;;;;;;;;;;;;;;23.96;50.83;95898.97;10505957;28;2401;-62
2023/09/09 10:24:57;;;;;;;;;;;;;;;23.97;50.47;95893.38;10513440;28;1541;-62
2023/09/09 10:29:57;;;;;;;;;;;;;;;23.97;50.75;95896.03;10497524;28;1496;-62
2023/09/09 10:34:58;;;;;;;;;;;;;;;23.98;50.67;95897.63;10522607;28;1971;-62
2023/09/09 10:39:58;;;;;;;;;;;;;;;24.00;50.84;95892.03;10505118;28;5062;-62
2023/09/09 10:45:18;;;;;;;;;;;;;;;24.00;50.86;95884.88;10507149;28;1221;-62
2023/09/09 10:50:19;;;;;;;;;;;;;;;24.00;50.75;95884.88;10521231;28;1431;-62
2023/09/09 10:55:26;;;;;;;;;;;;;;;24.01;50.93;95886.44;10532435;28;1985;-62
2023/09/09 11:00:40;;;;;;;;;;;;;;;24.03;51.05;95891.44;10528399;28;1026;-62
2023/09/09 11:05:55;;;;;;;;;;;;;;;24.03;50.90;95889.59;10538629;28;1370;-62
2023/09/09 11:11:09;;;;;;;;;;;;;;;24.03;50.86;95881.66;10514767;28;1382;-62
2023/09/09 11:16:27;;;;;;;;;;;;;;;24.05;50.78;95884.03;10534237;28;2391;-62
2023/09/09 11:21:28;;;;;;;;;;;;;;;24.04;50.70;95891.19;10518843;28;1328;-60
2023/09/09 11:26:29;;;;;;;;;;;;;;;24.05;50.91;95889.34;10531474;28;1362;-62
2023/09/09 11:31:30;;;;;;;;;;;;;;;24.06;50.89;95894.34;10531844;28;1035;-62
2023/09/09 11:36:30;;;;;;;;;;;;;;;24.07;50.89;95887.94;10536391;28;1898;-62
2023/09/09 11:41:31;;;;;;;;;;;;;;;24.08;50.87;95881.59;10531828;28;5006;-62
2023/09/09 11:46:32;;;;;;;;;;;;;;;24.09;50.73;95880.50;10530682;28;1001;-62
2023/09/09 11:51:33;;;;;;;;;;;;;;;24.09;50.83;95877.84;10528320;28;1585;-62
2023/09/09 11:56:33;;;;;;;;;;;;;;;24.11;51.05;95875.69;10535254;28;1980;-62
2023/09/09 12:01:41;;;;;;;;;;;;;;;24.11;50.93;95867.75;10524901;28;1035;-62
2023/09/09 12:06:42;;;;;;;;;;;;;;;24.12;51.36;95861.38;10516745;28;1049;-62
2023/09/09 12:11:42;;;;;;;;;;;;;;;24.13;50.93;95870.88;10527383;28;2266;-62
2023/09/09 12:16:44;;;;;;;;;;;;;;;24.13;51.37;95868.22;10517574;28;1906;-62
2023/09/09 12:21:45;;;;;;;;;;;;;;;24.13;51.07;95865.59;10537720;28;1486;-63
2023/09/09 12:26:52;;;;;;;;;;;;;;;24.15;51.08;95860.03;10522784;28;1395;-62
2023/09/09 12:31:52;;;;;;;;;;;;;;;24.16;51.18;95859.72;10544245;28;1580;-63
2023/09/09 12:37:01;;;;;;;;;;;;;;;24.16;51.29;95866.88;10527549;28;1902;-62
2023/09/09 12:42:02;;;;;;;;;;;;;;;24.17;51.37;95857.84;10535259;28;1413;-62
2023/09/09 12:47:03;;;;;;;;;;;;;;;24.18;51.22;95865.50;10547487;28;1388;-62
2023/09/09 12:52:03;;;;;;;;;;;;;;;24.19;51.50;95858.34;10517410;28;1075;-63
2023/09/09 12:57:03;;;;;;;;;;;;;;;24.19;51.27;95861.00;10525022;28;1971;-62
2023/09/09 13:02:04;;;;;;;;;;;;;;;24.20;51.30;95860.69;10502560;28;1151;-62
2023/09/09 13:07:04;;;;;;;;;;;;;;;24.21;51.48;95861.50;10487721;28;2341;-62
2023/09/09 13:12:04;;;;;;;;;;;;;;;24.21;51.30;95856.94;10528442;28;1473;-62
2023/09/09 13:17:05;;;;;;;;;;;;;;;24.22;51.20;95853.25;10525953;28;1969;-62
2023/09/09 13:22:05;;;;;;;;;;;;;;;24.23;51.55;95856.69;10489533;28;1631;-62
2023/09/09 13:27:05;;;;;;;;;;;;;;;24.24;51.25;95850.28;10518034;28;1434;-62
2023/09/09 13:32:05;;;;;;;;;;;;;;;24.24;51.33;95850.28;10530463;28;1332;-62
2023/09/09 13:37:06;;;;;;;;;;;;;;;24.24;51.24;95847.63;10508799;28;1976;-62
2023/09/09 13:42:06;;;;;;;;;;;;;;;24.24;51.27;95848.44;10535219;28;6130;-60
2023/09/09 13:47:06;;;;;;;;;;;;;;;24.25;51.61;95847.34;10528125;28;1558;-61
2023/09/09 13:52:06;;;;;;;;;;;;;;;24.26;51.54;95848.13;10502672;28;1146;-60
2023/09/09 13:57:09;;;;;;;;;;;;;;;24.27;51.39;95846.28;10517643;28;1977;-60
2023/09/09 14:02:09;;;;;;;;;;;;;;;24.27;51.47;95846.28;10507624;28;1401;-60
2023/09/09 14:07:09;;;;;;;;;;;;;;;24.27;51.59;95841.78;10529204;28;2351;-60
2023/09/09 14:12:10;;;;;;;;;;;;;;;24.28;51.57;95837.25;10531224;28;1633;-62
2023/09/09 14:17:10;;;;;;;;;;;;;;;24.29;51.52;95839.59;10499278;28;1913;-62
2023/09/09 14:22:10;;;;;;;;;;;;;;;24.28;51.74;95827.44;10539829;28;1473;-61
2023/09/09 14:27:13;;;;;;;;;;;;;;;24.29;51.44;95830.88;10519213;28;1529;-62
2023/09/09 14:32:13;;;;;;;;;;;;;;;24.29;51.46;95820.28;10553227;28;1174;-62
2023/09/09 14:37:14;;;;;;;;;;;;;;;24.30;51.41;95821.84;10528989;28;1971;-60
2023/09/09 14:42:14;;;;;;;;;;;;;;;24.29;51.56;95821.06;10523515;28;4982;-60
2023/09/09 14:47:15;;;;;;;;;;;;;;;24.30;51.44;95811.25;10525705;28;1400;-62
2023/09/09 14:52:15;;;;;;;;;;;;;;;24.30;51.59;95817.31;10498614;28;1386;-62
2023/09/09 14:57:15;;;;;;;;;;;;;;;24.32;51.67;95812.50;10534923;28;1905;-62
2023/09/09 15:02:15;;;;;;;;;;;;;;;24.30;51.49;95816.56;10509504;28;2316;-62
2023/09/09 15:07:16;;;;;;;;;;;;;;;24.31;51.65;95816.25;10525973;28;1481;-63
2023/09/09 15:12:16;;;;;;;;;;;;;;;24.32;51.60;95822.34;10503930;28;1634;-62
2023/09/09 15:17:16;;;;;;;;;;;;;;;24.32;51.55;95823.09;10471162;28;1910;-62
2023/09/09 15:22:17;;;;;;;;;;;;;;;24.33;51.39;95830.00;10509399;28;1521;-62
2023/09/09 15:27:17;;;;;;;;;;;;;;;24.32;51.51;95822.34;10528162;28;1538;-62
2023/09/09 15:32:17;;;;;;;;;;;;;;;24.32;51.43;95822.34;10525953;28;1513;-62
2023/09/09 15:37:17;;;;;;;;;;;;;;;24.33;51.60;95823.91;10519195;28;1977;-62
2023/09/09 15:42:18;;;;;;;;;;;;;;;24.32;51.52;95831.06;10507238;28;5090;-62
2023/09/09 15:47:18;;;;;;;;;;;;;;;24.32;51.50;95817.03;10521829;28;1186;-62
2023/09/09 15:52:18;;;;;;;;;;;;;;;24.32;51.22;95828.41;10531414;28;1427;-62
2023/09/09 15:57:18;;;;;;;;;;;;;;;24.32;51.28;95823.09;10526428;28;2275;-62
2023/09/09 16:02:19;;;;;;;;;;;;;;;24.33;51.26;95826.56;10517439;28;1473;-63
2023/09/09 16:07:19;;;;;;;;;;;;;;;24.32;51.32;95817.81;10503334;28;1447;-60
2023/09/09 16:12:19;;;;;;;;;;;;;;;24.33;51.58;95822.03;10493258;28;1647;-60
2023/09/09 16:17:21;;;;;;;;;;;;;;;24.33;51.55;95821.25;10542095;28;1906;-62
2023/09/09 16:22:21;;;;;;;;;;;;;;;24.33;51.43;95818.59;10546953;28;1380;-62
2023/09/09 16:27:22;;;;;;;;;;;;;;;24.33;51.57;95818.59;10531484;28;1140;-60
2023/09/09 16:32:22;;;;;;;;;;;;;;;24.34;51.38;95822.84;10493907;28;1340;-62
2023/09/09 16:37:22;;;;;;;;;;;;;;;24.33;51.33;95830.00;10511899;28;1991;-62
2023/09/09 16:42:22;;;;;;;;;;;;;;;24.33;51.42;95826.56;10532476;28;4993;-62
2023/09/09 16:47:23;;;;;;;;;;;;;;;24.32;51.43;95828.41;10541491;28;1380;-62
2023/09/09 16:52:23;;;;;;;;;;;;;;;24.33;51.50;95839.78;10520837;28;1415;-62
2023/09/09 16:57:23;;;;;;;;;;;;;;;24.33;51.48;95835.28;10520056;28;1914;-62
2023/09/09 17:02:29;;;;;;;;;;;;;;;24.33;51.38;95831.84;10524908;28;1301;-62
2023/09/09 17:07:30;;;;;;;;;;;;;;;24.34;51.46;95841.38;10526623;28;1383;-61
2023/09/09 17:12:30;;;;;;;;;;;;;;;24.33;51.47;95845.09;10545319;28;1066;-61
2023/09/09 17:17:30;;;;;;;;;;;;;;;24.32;51.18;95844.31;10533590;28;1911;-61
2023/09/09 17:22:30;;;;;;;;;;;;;;;24.32;51.22;95851.50;10533043;28;1459;-61
2023/09/09 17:27:31;;;;;;;;;;;;;;;24.32;51.38;95849.59;10521771;28;1091;-61
2023/09/09 17:32:31;;;;;;;;;;;;;;;24.33;51.34;95853.84;10502711;28;1419;-61
2023/09/09 17:37:31;;;;;;;;;;;;;;;24.33;51.36;95856.50;10520116;28;1913;-61
2023/09/09 17:42:31;;;;;;;;;;;;;;;24.33;51.48;95861.00;10540712;28;5054;-61
2023/09/09 17:47:32;;;;;;;;;;;;;;;24.33;51.17;95868.94;10507357;28;1466;-61
2023/09/09 17:52:35;;;;;;;;;;;;;;;24.33;51.34;95869.72;10519786;28;2544;-61
2023/09/09 17:57:35;;;;;;;;;;;;;;;24.32;51.14;95873.44;10521843;28;1919;-61
2023/09/09 18:02:36;;;;;;;;;;;;;;;24.33;51.33;95876.88;10506722;28;1410;-61
2023/09/09 18:07:36;;;;;;;;;;;;;;;24.33;51.31;95884.84;10527202;28;1392;-61
2023/09/09 18:12:38;;;;;;;;;;;;;;;24.33;51.43;95888.28;10543446;28;1157;-61
2023/09/09 18:17:38;;;;;;;;;;;;;;;24.34;51.17;95894.38;10520397;28;1967;-61
2023/09/09 18:22:38;;;;;;;;;;;;;;;24.32;51.22;95897.28;10514818;28;1228;-61
2023/09/09 18:27:38;;;;;;;;;;;;;;;24.35;51.06;95903.88;10504756;28;1130;-65
2023/09/09 18:32:39;;;;;;;;;;;;;;;24.38;51.59;95900.66;10535302;28;1404;-61
2023/09/09 18:37:39;;;;;;;;;;;;;;;24.37;51.60;95907.00;10527521;28;1975;-62
2023/09/09 18:42:39;;;;;;;;;;;;;;;24.36;51.42;95913.41;10540282;28;5068;-62
2023/09/09 18:47:40;;;;;;;;;;;;;;;24.35;51.52;95917.13;10528672;28;2266;-62
2023/09/09 18:52:40;;;;;;;;;;;;;;;24.35;51.56;95917.13;10508063;28;1627;-61
2023/09/09 18:57:41;;;;;;;;;;;;;;;24.34;51.61;95923.50;10514424;28;1886;-62
2023/09/09 19:02:41;;;;;;;;;;;;;;;24.35;51.65;95927.72;10520150;28;1400;-61
2023/09/09 19:07:42;;;;;;;;;;;;;;;24.34;51.76;95923.50;10521062;28;1396;-62
2023/09/09 19:12:43;;;;;;;;;;;;;;;24.33;51.85;95930.66;10512217;28;1169;-62
2023/09/09 19:17:43;;;;;;;;;;;;;;;24.34;51.49;95934.09;10512082;28;1906;-62
2023/09/09 19:22:43;;;;;;;;;;;;;;;24.33;51.64;95929.88;10525433;28;1367;-62
2023/09/09 19:27:47;;;;;;;;;;;;;;;24.33;51.78;95930.66;10525557;28;1128;-62
2023/09/09 19:32:47;;;;;;;;;;;;;;;24.32;51.68;95937.03;10506006;28;1327;-62
2023/09/09 19:37:47;;;;;;;;;;;;;;;24.33;51.70;95938.63;10510756;28;1910;-62
2023/09/09 19:42:48;;;;;;;;;;;;;;;24.33;51.48;95943.13;10546379;28;5086;-62
2023/09/09 19:47:48;;;;;;;;;;;;;;;24.33;51.56;95938.63;10512904;28;1479;-62
2023/09/09 19:52:48;;;;;;;;;;;;;;;24.32;51.67;95944.97;10539689;28;1457;-62
2023/09/09 19:57:49;;;;;;;;;;;;;;;24.32;51.60;95942.31;10530181;28;1987;-63
2023/09/09 20:02:50;;;;;;;;;;;;;;;24.32;51.64;95944.22;10512223;28;1412;-63
2023/09/09 20:07:52;;;;;;;;;;;;;;;24.31;51.75;95946.06;10523433;28;1488;-63
2023/09/09 20:12:52;;;;;;;;;;;;;;;24.32;51.75;95944.22;10542711;28;1154;-63
2023/09/09 20:17:52;;;;;;;;;;;;;;;24.32;51.75;95944.22;10552346;28;1910;-63
2023/09/09 20:22:52;;;;;;;;;;;;;;;24.33;51.63;95940.47;10511288;28;1408;-63
2023/09/09 20:27:53;;;;;;;;;;;;;;;24.32;51.79;95944.97;10540610;28;1212;-63
2023/09/09 20:32:53;;;;;;;;;;;;;;;24.32;51.55;95939.69;10507738;28;1423;-63
2023/09/09 20:37:53;;;;;;;;;;;;;;;24.32;51.56;95939.69;10529391;28;2334;-63
2023/09/09 20:43:00;;;;;;;;;;;;;;;24.32;51.39;95939.69;10534026;28;5091;-63
2023/09/09 20:48:00;;;;;;;;;;;;;;;24.33;51.54;95945.78;10523877;28;1529;-63
2023/09/09 20:53:00;;;;;;;;;;;;;;;24.32;51.51;95944.22;10522538;28;1459;-63
2023/09/09 20:58:01;;;;;;;;;;;;;;;24.32;51.54;95952.16;10541195;28;1910;-63
2023/09/09 21:03:01;;;;;;;;;;;;;;;24.33;51.47;95948.41;10526325;28;1356;-66
2023/09/09 21:08:02;;;;;;;;;;;;;;;24.32;51.50;95944.97;10534752;28;1395;-63
2023/09/09 21:13:02;;;;;;;;;;;;;;;24.32;51.31;95947.63;10537222;28;1062;-63
2023/09/09 21:18:02;;;;;;;;;;;;;;;24.32;51.49;95942.31;10530766;28;1977;-63
2023/09/09 21:23:03;;;;;;;;;;;;;;;24.32;51.49;95942.31;10508514;28;1431;-63
2023/09/09 21:28:03;;;;;;;;;;;;;;;24.33;51.55;95945.78;10521884;28;1043;-63
2023/09/09 21:33:05;;;;;;;;;;;;;;;24.32;51.63;95944.22;10522172;28;2281;-63
2023/09/09 21:38:05;;;;;;;;;;;;;;;24.33;51.42;95932.53;10536864;28;1993;-63
2023/09/09 21:43:05;;;;;;;;;;;;;;;24.33;51.31;95929.88;10525572;28;5024;-63
2023/09/09 21:48:07;;;;;;;;;;;;;;;24.33;51.45;95927.22;10518427;28;1403;-63
2023/09/09 21:53:07;;;;;;;;;;;;;;;24.31;51.57;95929.38;10503345;28;1389;-63
2023/09/09 21:58:08;;;;;;;;;;;;;;;24.33;51.29;95928.00;10529495;28;1906;-63
2023/09/09 22:03:08;;;;;;;;;;;;;;;24.33;51.47;95924.56;10532162;28;1346;-63
2023/09/09 22:08:08;;;;;;;;;;;;;;;24.32;51.32;95921.13;10509206;28;1442;-63
2023/09/09 22:13:09;;;;;;;;;;;;;;;24.33;51.45;95920.06;10510725;28;1030;-63
2023/09/09 22:18:09;;;;;;;;;;;;;;;24.33;51.32;95921.94;10520656;28;1901;-63
2023/09/09 22:23:10;;;;;;;;;;;;;;;24.34;51.46;95918.22;10532688;28;1356;-63
2023/09/09 22:28:10;;;;;;;;;;;;;;;24.33;51.35;95913.97;10537011;28;987;-63
2023/09/09 22:33:10;;;;;;;;;;;;;;;24.34;51.33;95920.84;10530876;28;2258;-63
2023/09/09 22:38:11;;;;;;;;;;;;;;;24.33;51.55;95920.06;10527651;28;1909;-63
2023/09/09 22:43:11;;;;;;;;;;;;;;;24.33;51.58;95913.97;10527725;28;5141;-63
2023/09/09 22:48:11;;;;;;;;;;;;;;;24.34;51.47;95934.09;10525744;28;1352;-63
2023/09/09 22:53:11;;;;;;;;;;;;;;;24.33;51.39;95921.94;10522301;28;1347;-63
2023/09/09 22:58:12;;;;;;;;;;;;;;;24.34;51.42;95918.22;10529533;28;1969;-63
2023/09/09 23:03:12;;;;;;;;;;;;;;;24.34;51.56;95928.81;10494084;28;1390;-63
2023/09/09 23:08:12;;;;;;;;;;;;;;;24.34;51.22;95920.84;10501615;28;1364;-63
2023/09/09 23:13:12;;;;;;;;;;;;;;;24.34;51.42;95934.09;10523839;28;983;-63
2023/09/09 23:18:13;;;;;;;;;;;;;;;24.35;51.24;95927.72;10517947;28;1968;-63
2023/09/09 23:23:13;;;;;;;;;;;;;;;24.35;51.45;95933.00;10530749;28;1391;-63
2023/09/09 23:28:13;;;;;;;;;;;;;;;24.34;51.24;95926.16;10517874;28;1081;-63
2023/09/09 23:33:14;;;;;;;;;;;;;;;24.35;51.42;95930.38;10532173;28;1363;-63
2023/09/09 23:38:14;;;;;;;;;;;;;;;24.34;51.46;95932.22;10501277;28;1961;-63
2023/09/09 23:43:14;;;;;;;;;;;;;;;24.34;51.51;95934.88;10529319;28;1372;-63
2023/09/09 23:48:14;;;;;;;;;;;;;;;24.35;51.58;95930.38;10530886;28;1264;-63
2023/09/09 23:53:15;;;;;;;;;;;;;;;24.34;51.48;95918.22;10502810;28;1430;-63
2023/09/09 23:58:16;;;;;;;;;;;;;;;24.35;51.21;95907.31;10525469;28;1901;-63
